Time;durP1;ratioP1;P1;durP2;ratioP2;P2;SDS_P1;SDS_P2;PMS_P1;PMS_P2;Temp;Humidity;BMP_temperature;BMP_pressure;BME280_temperature;BME280_humidity;BME280_pressure;Samples;Min_cycle;Max_cycle;Signal;HPM_P1;HPM_P2
2023/11/04 00:01:04;;;;;;;1.30;0.93;;;12.50;72.20;;;;;;5024746;28;20844;-47
2023/11/04 00:03:46;;;;;;;0.97;0.87;;;12.50;72.10;;;;;;5030409;28;20443;-46
2023/11/04 00:06:15;;;;;;;0.90;0.80;;;12.50;72.30;;;;;;5030005;28;20464;-46
2023/11/04 00:08:44;;;;;;;2.47;1.10;;;12.50;72.00;;;;;;5028178;28;21007;-47
2023/11/04 00:11:12;;;;;;;1.20;0.97;;;12.50;72.00;;;;;;5027540;28;20460;-46
2023/11/04 00:13:40;;;;;;;1.47;1.17;;;12.50;72.10;;;;;;5031231;28;20440;-46
2023/11/04 00:16:09;;;;;;;1.37;1.17;;;12.50;72.20;;;;;;5028005;28;20471;-46
2023/11/04 00:18:38;;;;;;;1.30;0.93;;;12.50;72.20;;;;;;5025800;28;20917;-46
2023/11/04 00:21:08;;;;;;;1.27;0.70;;;12.50;72.00;;;;;;5010870;28;20475;-46
2023/11/04 00:23:36;;;;;;;1.00;0.87;;;12.50;73.30;;;;;;5028142;28;20453;-45
2023/11/04 00:26:07;;;;;;;1.57;0.90;;;12.50;71.90;;;;;;5027489;28;20489;-46
2023/11/04 00:28:37;;;;;;;0.97;0.50;;;12.40;72.20;;;;;;5030301;28;20475;-46
2023/11/04 00:31:07;;;;;;;0.90;0.60;;;12.40;72.10;;;;;;5028986;28;20845;-46
2023/11/04 00:33:36;;;;;;;1.10;0.90;;;12.40;71.60;;;;;;5027828;28;20448;-46
2023/11/04 00:36:06;;;;;;;1.13;0.90;;;12.40;71.90;;;;;;5027863;28;20488;-46
2023/11/04 00:38:35;;;;;;;2.30;0.93;;;12.40;72.10;;;;;;5010456;28;20452;-46
2023/11/04 00:41:04;;;;;;;1.10;0.90;;;12.40;72.40;;;;;;5028329;28;20562;-46
2023/11/04 00:43:35;;;;;;;1.17;0.80;;;12.40;72.60;;;;;;5012225;28;20429;-46
2023/11/04 00:46:03;;;;;;;1.63;1.20;;;12.40;72.20;;;;;;5028900;28;21820;-46
2023/11/04 00:48:32;;;;;;;1.07;0.60;;;12.40;72.80;;;;;;5027728;28;20458;-46
2023/11/04 00:51:02;;;;;;;0.90;0.70;;;12.40;72.40;;;;;;5028752;28;20541;-46
2023/11/04 00:53:31;;;;;;;0.97;0.63;;;12.40;72.40;;;;;;5026153;28;20433;-45
2023/11/04 00:55:59;;;;;;;0.70;0.50;;;12.40;72.10;;;;;;5007735;28;20468;-46
2023/11/04 00:58:27;;;;;;;1.67;0.70;;;12.40;72.50;;;;;;5012337;28;20440;-46
2023/11/04 01:01:00;;;;;;;2.20;0.70;;;12.40;72.50;;;;;;5028597;28;20468;-45
2023/11/04 01:03:28;;;;;;;2.30;1.20;;;12.40;72.30;;;;;;5027901;28;20450;-46
2023/11/04 01:05:56;;;;;;;1.00;0.70;;;12.40;72.50;;;;;;5026483;28;21076;-45
2023/11/04 01:08:24;;;;;;;1.30;0.90;;;12.40;72.40;;;;;;5024877;28;20441;-46
2023/11/04 01:10:53;;;;;;;1.17;0.80;;;12.40;72.20;;;;;;5027192;28;20475;-46
2023/11/04 01:13:21;;;;;;;2.00;0.80;;;12.40;72.60;;;;;;5027985;28;20736;-45
2023/11/04 01:15:51;;;;;;;2.23;0.90;;;12.40;72.40;;;;;;5010340;28;20529;-45
2023/11/04 01:18:24;;;;;;;1.37;0.63;;;12.40;72.50;;;;;;5026754;28;20518;-46
2023/11/04 01:20:52;;;;;;;1.07;0.50;;;12.30;72.20;;;;;;5025093;28;20526;-46
2023/11/04 01:23:20;;;;;;;1.20;0.70;;;12.30;72.50;;;;;;5025162;28;20446;-46
2023/11/04 01:25:48;;;;;;;1.73;0.83;;;12.30;72.70;;;;;;5026690;28;20525;-46
2023/11/04 01:28:16;;;;;;;1.70;0.77;;;12.30;72.50;;;;;;5027013;28;20817;-46
2023/11/04 01:30:45;;;;;;;1.13;0.57;;;12.30;72.40;;;;;;5028182;28;20478;-46
2023/11/04 01:33:13;;;;;;;1.10;0.70;;;12.30;72.60;;;;;;5002987;28;20972;-46
2023/11/04 01:35:43;;;;;;;3.47;0.80;;;12.30;72.90;;;;;;5026614;28;20522;-46
2023/11/04 01:38:11;;;;;;;1.00;0.70;;;12.30;73.00;;;;;;5025352;28;20429;-46
2023/11/04 01:40:40;;;;;;;1.47;0.90;;;12.30;72.60;;;;;;5026333;28;21075;-46
2023/11/04 01:43:08;;;;;;;0.90;0.50;;;12.30;72.60;;;;;;5028159;28;20417;-46
2023/11/04 01:45:36;;;;;;;2.83;0.90;;;12.20;72.70;;;;;;5026720;28;20484;-46
2023/11/04 01:48:05;;;;;;;1.40;1.10;;;12.30;72.90;;;;;;5026779;28;20520;-45
2023/11/04 01:50:34;;;;;;;1.80;0.93;;;12.20;72.80;;;;;;5025514;28;20471;-46
2023/11/04 01:53:03;;;;;;;1.23;0.73;;;12.30;72.90;;;;;;5024730;28;20432;-47
2023/11/04 01:55:31;;;;;;;1.00;0.70;;;12.30;73.20;;;;;;5024860;28;20468;-45
2023/11/04 01:58:00;;;;;;;1.87;0.70;;;12.30;73.20;;;;;;5010502;28;20957;-46
2023/11/04 02:00:28;;;;;;;0.90;0.60;;;12.30;72.90;;;;;;5009964;28;20543;-46
2023/11/04 02:02:57;;;;;;;1.20;0.70;;;12.30;73.30;;;;;;5026660;28;20576;-46
2023/11/04 02:05:25;;;;;;;0.97;0.60;;;12.30;73.30;;;;;;5026226;28;21147;-46
2023/11/04 02:07:53;;;;;;;1.20;0.60;;;12.30;73.40;;;;;;5025287;28;20948;-46
2023/11/04 02:10:23;;;;;;;1.27;0.60;;;12.30;73.40;;;;;;5022905;28;20473;-46
2023/11/04 02:12:51;;;;;;;1.17;0.60;;;12.30;73.40;;;;;;5027814;28;20443;-46
2023/11/04 02:15:20;;;;;;;1.40;0.80;;;12.20;73.10;;;;;;5024880;28;20485;-45
2023/11/04 02:17:49;;;;;;;1.30;0.73;;;12.20;73.30;;;;;;5005747;28;20450;-45
2023/11/04 02:20:20;;;;;;;1.07;0.67;;;12.20;73.50;;;;;;5027481;28;20478;-45
2023/11/04 02:22:50;;;;;;;0.80;0.70;;;12.20;73.10;;;;;;5027988;28;20484;-46
2023/11/04 02:25:18;;;;;;;0.90;0.70;;;12.20;73.60;;;;;;5023333;28;20686;-46
2023/11/04 02:27:46;;;;;;;1.63;0.77;;;12.20;73.30;;;;;;5023008;28;20452;-47
2023/11/04 02:30:15;;;;;;;1.17;0.60;;;12.20;73.60;;;;;;5024965;28;20878;-47
2023/11/04 02:32:43;;;;;;;1.23;0.70;;;12.20;73.50;;;;;;5023534;28;20529;-45
2023/11/04 02:35:11;;;;;;;0.80;0.53;;;12.20;73.80;;;;;;5025763;28;20484;-46
2023/11/04 02:37:39;;;;;;;1.43;0.90;;;12.20;73.60;;;;;;5024040;28;20428;-45
2023/11/04 02:40:10;;;;;;;1.20;0.60;;;12.20;73.60;;;;;;5022637;28;20471;-45
2023/11/04 02:42:39;;;;;;;0.93;0.60;;;12.20;73.40;;;;;;5028013;28;20511;-46
2023/11/04 02:45:08;;;;;;;1.00;0.70;;;12.20;73.40;;;;;;5026478;28;20522;-46
2023/11/04 02:47:36;;;;;;;2.50;0.60;;;12.20;75.00;;;;;;5008934;28;20471;-46
2023/11/04 02:50:05;;;;;;;1.20;0.60;;;12.20;73.80;;;;;;5024362;28;20818;-46
2023/11/04 02:52:33;;;;;;;1.40;0.60;;;12.20;73.60;;;;;;5021888;28;20801;-46
2023/11/04 02:55:01;;;;;;;2.23;0.70;;;12.20;73.90;;;;;;5020964;28;20455;-47
2023/11/04 02:57:31;;;;;;;0.90;0.60;;;12.20;73.80;;;;;;5028101;28;20428;-46
2023/11/04 02:59:59;;;;;;;1.03;0.53;;;12.20;73.90;;;;;;5009115;28;20458;-47
2023/11/04 03:02:27;;;;;;;1.00;0.50;;;12.20;74.00;;;;;;5003786;28;20456;-46
2023/11/04 03:04:55;;;;;;;1.00;0.47;;;12.20;73.90;;;;;;5024045;28;20546;-46
2023/11/04 03:07:24;;;;;;;1.00;0.57;;;12.20;73.80;;;;;;5028337;28;20487;-46
2023/11/04 03:09:52;;;;;;;1.83;0.80;;;12.20;74.00;;;;;;5022077;28;20482;-46
2023/11/04 03:12:20;;;;;;;1.00;0.50;;;12.20;74.20;;;;;;5027374;28;20463;-46
2023/11/04 03:14:50;;;;;;;0.90;0.77;;;12.20;74.20;;;;;;5020886;28;21020;-46
2023/11/04 03:17:19;;;;;;;1.43;0.60;;;12.20;74.00;;;;;;5008318;28;20540;-46
2023/11/04 03:19:47;;;;;;;1.20;0.73;;;12.20;74.20;;;;;;5009019;28;20418;-47
2023/11/04 03:22:18;;;;;;;1.23;0.60;;;12.20;74.10;;;;;;5027838;28;20439;-45
2023/11/04 03:24:48;;;;;;;0.80;0.53;;;12.20;74.30;;;;;;5021787;28;20876;-46
2023/11/04 03:27:17;;;;;;;1.53;0.80;;;12.20;74.20;;;;;;5026701;28;20543;-46
2023/11/04 03:29:45;;;;;;;1.10;0.70;;;12.20;74.20;;;;;;5024224;28;20478;-45
2023/11/04 03:32:14;;;;;;;0.90;0.50;;;12.20;74.30;;;;;;5001677;28;20455;-46
2023/11/04 03:34:42;;;;;;;1.20;0.63;;;12.20;74.10;;;;;;5008718;28;20443;-46
2023/11/04 03:37:11;;;;;;;1.20;0.63;;;12.20;74.20;;;;;;5026075;28;20428;-46
2023/11/04 03:39:39;;;;;;;1.30;0.70;;;12.20;74.30;;;;;;5024215;28;20453;-46
2023/11/04 03:42:07;;;;;;;1.20;0.70;;;12.20;74.30;;;;;;5030488;28;20817;-45
2023/11/04 03:44:35;;;;;;;1.20;0.53;;;12.10;74.40;;;;;;5027541;28;20432;-46
2023/11/04 03:47:03;;;;;;;1.17;0.73;;;12.10;74.70;;;;;;5031023;28;20486;-46
2023/11/04 03:49:33;;;;;;;1.10;0.67;;;12.10;74.70;;;;;;5029506;28;20455;-46
2023/11/04 03:52:01;;;;;;;1.20;1.00;;;12.10;74.80;;;;;;5028240;28;20802;-46
2023/11/04 03:54:33;;;;;;;1.10;0.50;;;12.10;74.90;;;;;;5029419;28;20447;-45
2023/11/04 03:57:02;;;;;;;0.93;0.60;;;12.10;74.80;;;;;;5032375;28;20949;-46
2023/11/04 03:59:30;;;;;;;0.90;0.60;;;12.10;75.00;;;;;;5029137;28;20482;-46
2023/11/04 04:01:58;;;;;;;0.90;0.53;;;12.10;74.90;;;;;;5030033;28;20434;-45
2023/11/04 04:04:26;;;;;;;0.90;0.53;;;12.10;75.00;;;;;;5031671;28;20440;-46
2023/11/04 04:06:57;;;;;;;1.90;0.80;;;12.10;75.00;;;;;;5030662;28;20473;-46
2023/11/04 04:09:25;;;;;;;0.90;0.63;;;12.10;75.00;;;;;;5008360;28;20446;-45
2023/11/04 04:11:53;;;;;;;1.10;0.60;;;12.10;75.00;;;;;;5028112;28;20463;-45
2023/11/04 04:14:25;;;;;;;0.80;0.40;;;12.10;75.00;;;;;;5029951;28;20447;-45
2023/11/04 04:16:53;;;;;;;0.90;0.70;;;12.10;74.90;;;;;;5025344;28;20471;-45
2023/11/04 04:19:22;;;;;;;0.80;0.50;;;12.10;75.10;;;;;;5027924;28;20446;-46
2023/11/04 04:21:50;;;;;;;1.00;0.50;;;12.10;75.20;;;;;;5026862;28;20502;-46
2023/11/04 04:24:20;;;;;;;1.50;0.70;;;12.10;75.20;;;;;;5027930;28;20444;-46
2023/11/04 04:26:48;;;;;;;1.20;0.80;;;12.10;75.30;;;;;;5030966;28;20491;-47
2023/11/04 04:29:17;;;;;;;1.00;0.50;;;12.10;75.20;;;;;;5030309;28;20946;-46
2023/11/04 04:31:45;;;;;;;1.23;0.60;;;12.10;75.30;;;;;;5028890;28;21088;-45
2023/11/04 04:34:13;;;;;;;1.27;0.50;;;12.00;75.20;;;;;;5028864;28;20429;-46
2023/11/04 04:36:42;;;;;;;0.80;0.50;;;12.10;75.30;;;;;;5030553;28;20468;-46
2023/11/04 04:39:10;;;;;;;0.90;0.50;;;12.10;75.30;;;;;;5026868;28;20456;-46
2023/11/04 04:41:40;;;;;;;1.07;0.50;;;12.10;75.30;;;;;;5029307;28;21061;-45
2023/11/04 04:44:08;;;;;;;1.77;0.80;;;12.10;75.30;;;;;;5024762;28;20448;-45
2023/11/04 04:46:39;;;;;;;0.70;0.50;;;12.10;75.30;;;;;;5025569;28;20486;-46
2023/11/04 04:49:08;;;;;;;1.17;0.60;;;12.10;75.20;;;;;;5028911;28;20476;-46
2023/11/04 04:51:36;;;;;;;1.00;0.53;;;12.00;75.30;;;;;;5029439;28;20456;-46
2023/11/04 04:54:05;;;;;;;0.80;0.50;;;12.10;75.20;;;;;;5026754;28;20458;-46
2023/11/04 04:56:33;;;;;;;0.80;0.50;;;12.10;75.10;;;;;;5027342;28;20471;-47
2023/11/04 04:59:03;;;;;;;0.90;0.40;;;12.10;75.20;;;;;;5029759;28;20420;-45
2023/11/04 05:01:31;;;;;;;1.07;0.47;;;12.10;75.00;;;;;;5026261;28;20483;-46
2023/11/04 05:03:59;;;;;;;2.63;0.47;;;12.10;75.20;;;;;;5028977;28;20439;-46
2023/11/04 05:06:28;;;;;;;1.13;0.60;;;12.00;75.20;;;;;;5028082;28;20887;-45
2023/11/04 05:08:56;;;;;;;1.13;0.47;;;12.10;75.10;;;;;;5027447;28;20473;-45
2023/11/04 05:11:24;;;;;;;0.80;0.40;;;12.10;75.30;;;;;;5028849;28;20459;-46
2023/11/04 05:13:52;;;;;;;0.93;0.70;;;12.10;75.20;;;;;;5028957;28;20438;-46
2023/11/04 05:16:22;;;;;;;1.87;0.50;;;12.10;75.30;;;;;;5028376;28;20911;-46
2023/11/04 05:18:50;;;;;;;0.80;0.60;;;12.10;75.20;;;;;;5026227;28;20442;-46
2023/11/04 05:21:19;;;;;;;1.30;0.60;;;12.10;75.20;;;;;;5026339;28;20689;-46
2023/11/04 05:23:47;;;;;;;0.80;0.47;;;12.10;75.20;;;;;;5022960;28;20456;-46
2023/11/04 05:26:15;;;;;;;1.07;0.73;;;12.10;75.20;;;;;;5027912;28;20471;-46
2023/11/04 05:28:43;;;;;;;1.20;0.63;;;12.10;75.10;;;;;;5029007;28;20445;-46
2023/11/04 05:31:12;;;;;;;1.43;0.70;;;12.10;75.20;;;;;;5025134;28;20474;-45
2023/11/04 05:33:42;;;;;;;0.90;0.50;;;12.10;75.20;;;;;;5030040;28;20456;-46
2023/11/04 05:36:11;;;;;;;1.17;0.60;;;12.10;75.20;;;;;;5026908;28;20484;-45
2023/11/04 05:38:39;;;;;;;1.40;0.77;;;12.00;75.10;;;;;;5026552;28;20450;-46
2023/11/04 05:41:08;;;;;;;1.00;0.53;;;12.10;75.20;;;;;;5027622;28;20509;-46
2023/11/04 05:43:36;;;;;;;1.03;0.70;;;12.10;75.20;;;;;;5028825;28;20494;-46
2023/11/04 05:46:07;;;;;;;0.80;0.50;;;12.00;75.20;;;;;;5028153;28;20463;-45
2023/11/04 05:48:38;;;;;;;0.80;0.50;;;12.00;75.20;;;;;;5007970;28;20479;-45
2023/11/04 05:51:09;;;;;;;0.90;0.40;;;12.00;75.20;;;;;;5006807;28;20467;-46
2023/11/04 05:53:37;;;;;;;0.63;0.30;;;12.00;75.30;;;;;;5005661;28;20682;-46
2023/11/04 05:56:06;;;;;;;1.90;0.70;;;12.00;75.20;;;;;;5007947;28;20467;-45
2023/11/04 05:58:34;;;;;;;1.13;0.50;;;12.00;75.30;;;;;;5007826;28;20427;-46
2023/11/04 06:01:04;;;;;;;1.03;0.47;;;12.00;75.30;;;;;;5006083;28;20873;-46
2023/11/04 06:03:33;;;;;;;0.80;0.50;;;12.00;75.40;;;;;;5007444;28;20457;-46
2023/11/04 06:06:02;;;;;;;0.80;0.37;;;12.00;75.40;;;;;;4989458;28;20471;-46
2023/11/04 06:08:35;;;;;;;0.70;0.40;;;12.00;75.40;;;;;;5005089;28;20545;-45
2023/11/04 06:11:05;;;;;;;0.80;0.40;;;12.00;75.40;;;;;;5005184;28;20469;-46
2023/11/04 06:13:34;;;;;;;0.90;0.50;;;12.00;75.50;;;;;;5007395;28;20961;-46
2023/11/04 06:16:03;;;;;;;1.07;0.53;;;12.00;75.60;;;;;;5007048;28;21062;-46
2023/11/04 06:18:33;;;;;;;0.70;0.33;;;12.00;75.50;;;;;;5006890;28;20489;-45
2023/11/04 06:21:02;;;;;;;0.80;0.47;;;12.00;75.70;;;;;;5005928;28;20487;-45
2023/11/04 06:23:30;;;;;;;1.00;0.50;;;12.00;75.70;;;;;;5003599;28;20460;-45
2023/11/04 06:25:58;;;;;;;1.07;0.50;;;12.00;75.70;;;;;;5007167;28;20905;-46
2023/11/04 06:28:28;;;;;;;0.83;0.50;;;12.00;75.80;;;;;;5007372;28;20516;-46
2023/11/04 06:30:56;;;;;;;0.67;0.30;;;12.00;75.70;;;;;;5004155;28;20997;-46
2023/11/04 06:33:24;;;;;;;0.90;0.40;;;11.90;75.80;;;;;;5013940;28;20453;-46
2023/11/04 06:35:53;;;;;;;0.70;0.40;;;11.90;75.90;;;;;;5010209;28;20656;-46
2023/11/04 06:38:21;;;;;;;1.00;0.40;;;11.90;76.00;;;;;;5004104;28;20436;-46
2023/11/04 06:40:49;;;;;;;1.00;0.40;;;11.90;75.80;;;;;;5005304;28;20465;-46
2023/11/04 06:43:19;;;;;;;1.10;0.60;;;12.00;75.90;;;;;;5007650;28;20438;-46
2023/11/04 06:45:47;;;;;;;1.00;0.40;;;11.90;75.70;;;;;;5005748;28;20873;-46
2023/11/04 06:48:16;;;;;;;1.83;0.50;;;11.90;75.80;;;;;;5007403;28;20489;-46
2023/11/04 06:50:45;;;;;;;0.90;0.40;;;11.90;76.00;;;;;;5027150;28;20475;-46
2023/11/04 06:53:13;;;;;;;0.90;0.47;;;11.90;76.00;;;;;;5025767;28;20473;-45
2023/11/04 06:55:41;;;;;;;0.87;0.50;;;11.90;76.20;;;;;;5025427;28;20470;-45
2023/11/04 06:58:09;;;;;;;0.90;0.40;;;11.90;76.20;;;;;;5026810;28;20432;-45
2023/11/04 07:00:39;;;;;;;1.03;0.60;;;11.90;76.30;;;;;;5027035;28;20836;-46
2023/11/04 07:03:07;;;;;;;1.20;0.60;;;11.90;76.20;;;;;;5026503;28;20444;-46
2023/11/04 07:05:36;;;;;;;1.57;0.90;;;11.90;76.30;;;;;;5027373;28;20464;-46
2023/11/04 07:08:05;;;;;;;0.90;0.60;;;11.90;76.40;;;;;;5026848;28;20479;-46
2023/11/04 07:10:37;;;;;;;1.77;0.70;;;11.90;76.40;;;;;;5024646;28;20478;-46
2023/11/04 07:13:07;;;;;;;1.00;0.40;;;11.90;76.50;;;;;;5028956;28;20416;-47
2023/11/04 07:15:37;;;;;;;1.60;0.67;;;11.90;76.30;;;;;;5008303;28;20511;-46
2023/11/04 07:18:07;;;;;;;0.93;0.50;;;11.90;76.50;;;;;;5026476;28;20447;-46
2023/11/04 07:20:35;;;;;;;1.37;0.50;;;11.90;76.60;;;;;;5028033;28;20995;-46
2023/11/04 07:23:03;;;;;;;1.30;0.50;;;11.90;76.60;;;;;;5030595;28;20420;-47
2023/11/04 07:25:32;;;;;;;0.90;0.60;;;11.90;76.60;;;;;;5027442;28;20466;-46
2023/11/04 07:28:00;;;;;;;1.10;0.70;;;11.90;76.60;;;;;;5029411;28;20439;-46
2023/11/04 07:30:28;;;;;;;1.90;0.50;;;11.90;76.60;;;;;;5030419;28;20551;-46
2023/11/04 07:32:56;;;;;;;3.33;0.57;;;11.90;76.80;;;;;;5031202;28;20435;-46
2023/11/04 07:35:25;;;;;;;0.93;0.60;;;11.90;77.00;;;;;;5030036;28;20602;-47
2023/11/04 07:37:54;;;;;;;0.90;0.40;;;11.90;77.00;;;;;;5030266;28;20435;-46
2023/11/04 07:40:23;;;;;;;1.73;1.03;;;11.90;77.00;;;;;;5026337;28;20475;-46
2023/11/04 07:43:11;;;;;;;1.37;0.70;;;11.90;77.50;;;;;;5023693;28;20430;-45
2023/11/04 07:45:39;;;;;;;0.97;0.50;;;11.80;77.80;;;;;;5030561;28;20476;-46
2023/11/04 07:48:07;;;;;;;2.03;0.63;;;11.90;77.30;;;;;;5029816;28;20456;-46
2023/11/04 07:50:38;;;;;;;0.97;0.40;;;11.90;77.20;;;;;;5027124;28;20462;-45
2023/11/04 07:53:06;;;;;;;1.30;0.70;;;11.90;77.20;;;;;;5017250;28;20441;-47
2023/11/04 07:55:34;;;;;;;1.40;0.70;;;11.90;77.30;;;;;;5024543;28;20557;-46
2023/11/04 07:58:04;;;;;;;1.37;1.27;;;11.90;79.00;;;;;;5029679;28;20471;-46
2023/11/04 08:00:32;;;;;;;4.33;1.10;;;11.90;80.70;;;;;;5028982;28;20561;-46
2023/11/04 08:03:01;;;;;;;3.70;0.97;;;11.90;80.70;;;;;;5028752;28;20458;-46
2023/11/04 08:05:30;;;;;;;1.40;0.53;;;11.90;82.40;;;;;;5025790;28;20824;-46
2023/11/04 08:08:00;;;;;;;1.50;0.60;;;11.90;81.70;;;;;;5028809;28;20451;-46
2023/11/04 08:10:28;;;;;;;5.10;0.80;;;11.90;82.20;;;;;;5008022;28;21023;-46
2023/11/04 08:12:56;;;;;;;1.90;0.50;;;11.90;80.50;;;;;;5025594;28;20775;-46
2023/11/04 08:15:24;;;;;;;2.30;0.87;;;11.90;80.70;;;;;;5006194;28;20486;-46
2023/11/04 08:17:53;;;;;;;10.33;1.17;;;11.90;81.30;;;;;;5029406;28;20428;-46
2023/11/04 08:20:21;;;;;;;1.37;0.50;;;11.90;80.70;;;;;;5028104;28;20542;-45
2023/11/04 08:22:49;;;;;;;2.03;0.70;;;11.90;80.40;;;;;;5030587;28;20446;-46
2023/11/04 08:25:19;;;;;;;4.87;0.80;;;11.90;80.50;;;;;;5027178;28;20467;-45
2023/11/04 08:27:47;;;;;;;2.17;0.77;;;11.90;80.50;;;;;;5030217;28;20474;-46
2023/11/04 08:30:17;;;;;;;0.90;0.50;;;11.90;80.40;;;;;;5029409;28;20992;-46
2023/11/04 08:32:46;;;;;;;1.17;0.67;;;11.90;80.20;;;;;;5026761;28;20472;-46
2023/11/04 08:35:15;;;;;;;1.80;0.80;;;11.90;80.30;;;;;;5029462;28;20474;-46
2023/11/04 08:37:44;;;;;;;3.37;0.60;;;11.90;80.10;;;;;;5029826;28;20494;-46
2023/11/04 08:40:13;;;;;;;0.80;0.40;;;11.80;79.90;;;;;;5026848;28;20491;-45
2023/11/04 08:42:42;;;;;;;1.37;0.70;;;11.90;80.00;;;;;;5030754;28;20432;-46
2023/11/04 08:45:13;;;;;;;2.30;1.00;;;11.80;79.80;;;;;;5024650;28;20492;-46
2023/11/04 08:47:42;;;;;;;1.30;0.50;;;11.80;79.60;;;;;;5025681;28;20899;-46
2023/11/04 08:50:11;;;;;;;2.60;0.83;;;11.90;80.50;;;;;;5024981;28;20577;-46
2023/11/04 08:52:40;;;;;;;3.13;0.63;;;11.90;80.30;;;;;;5009580;28;20866;-45
2023/11/04 08:55:09;;;;;;;4.20;0.80;;;11.90;80.40;;;;;;5023664;28;20474;-47
2023/11/04 08:57:38;;;;;;;4.93;1.80;;;11.90;80.40;;;;;;5030408;28;20467;-47
2023/11/04 09:00:11;;;;;;;1.70;0.80;;;11.90;79.80;;;;;;5011262;28;20904;-46
2023/11/04 09:02:39;;;;;;;1.47;0.63;;;11.90;79.80;;;;;;5028671;28;20437;-46
2023/11/04 09:05:08;;;;;;;2.17;1.40;;;11.90;79.50;;;;;;5029068;28;20472;-46
2023/11/04 09:07:42;;;;;;;2.50;1.03;;;11.90;79.50;;;;;;5004878;28;20462;-46
2023/11/04 09:10:10;;;;;;;1.83;0.60;;;11.90;79.30;;;;;;5025122;28;20938;-47
2023/11/04 09:12:39;;;;;;;2.60;0.87;;;11.90;78.90;;;;;;5028296;28;20516;-46
2023/11/04 09:15:10;;;;;;;1.43;1.13;;;11.90;78.80;;;;;;5028887;28;20494;-47
2023/11/04 09:17:38;;;;;;;1.73;0.83;;;11.90;78.60;;;;;;5027802;28;20452;-46
2023/11/04 09:20:08;;;;;;;2.20;1.17;;;11.90;78.10;;;;;;5028129;28;20988;-47
2023/11/04 09:22:37;;;;;;;5.53;1.00;;;11.90;78.00;;;;;;5029360;28;20440;-46
2023/11/04 09:25:09;;;;;;;4.83;0.70;;;11.90;77.70;;;;;;5026465;28;22011;-46
2023/11/04 09:27:37;;;;;;;2.47;1.00;;;11.90;77.30;;;;;;5026377;28;20931;-45
2023/11/04 09:30:09;;;;;;;1.93;0.80;;;11.90;77.70;;;;;;5020041;28;20606;-46
2023/11/04 09:32:37;;;;;;;3.10;1.03;;;11.90;77.50;;;;;;5026107;28;20450;-45
2023/11/04 09:35:06;;;;;;;5.03;0.80;;;11.90;77.60;;;;;;5022423;28;20467;-45
2023/11/04 09:37:34;;;;;;;2.10;0.83;;;11.90;77.60;;;;;;5006629;28;20446;-45
2023/11/04 09:40:03;;;;;;;2.47;0.77;;;12.00;78.90;;;;;;5017166;28;20483;-45
2023/11/04 09:42:31;;;;;;;2.70;1.17;;;12.00;77.60;;;;;;5023120;28;20444;-46
2023/11/04 09:45:00;;;;;;;1.30;0.90;;;12.00;77.50;;;;;;5023139;28;20889;-46
2023/11/04 09:47:31;;;;;;;2.07;0.90;;;12.00;77.50;;;;;;5025493;28;20443;-46
2023/11/04 09:49:59;;;;;;;3.37;0.83;;;12.00;77.30;;;;;;5023150;28;20454;-46
2023/11/04 09:52:28;;;;;;;2.83;1.00;;;12.10;77.40;;;;;;5021064;28;20460;-45
2023/11/04 09:55:00;;;;;;;2.23;0.70;;;12.10;77.40;;;;;;5017924;28;20548;-45
2023/11/04 09:57:29;;;;;;;1.93;0.87;;;12.10;77.30;;;;;;5016338;28;20817;-45
2023/11/04 09:59:58;;;;;;;1.13;0.60;;;12.10;77.20;;;;;;5015487;28;20631;-46
2023/11/04 10:02:27;;;;;;;1.40;0.63;;;12.10;76.90;;;;;;5020626;28;20463;-46
2023/11/04 10:04:58;;;;;;;1.40;0.70;;;12.10;77.00;;;;;;4997420;28;22656;-46
2023/11/04 10:07:26;;;;;;;1.03;0.57;;;12.10;76.80;;;;;;5018809;28;20550;-45
2023/11/04 10:09:55;;;;;;;1.27;0.60;;;12.10;77.00;;;;;;5019155;28;20443;-46
2023/11/04 10:12:23;;;;;;;2.10;0.70;;;12.20;77.00;;;;;;5019038;28;20985;-46
2023/11/04 10:14:54;;;;;;;1.67;0.50;;;12.20;76.90;;;;;;5025172;28;20444;-44
2023/11/04 10:17:22;;;;;;;1.93;0.70;;;12.20;76.80;;;;;;5026743;28;20453;-45
2023/11/04 10:19:50;;;;;;;2.20;1.10;;;12.20;76.60;;;;;;5024509;28;20448;-47
2023/11/04 10:22:20;;;;;;;1.67;1.23;;;12.20;76.90;;;;;;5026698;28;21021;-45
2023/11/04 10:24:49;;;;;;;2.70;0.90;;;12.20;77.20;;;;;;5024834;28;20576;-46
2023/11/04 10:27:17;;;;;;;2.20;0.80;;;12.10;76.90;;;;;;5026760;28;20444;-47
2023/11/04 10:29:45;;;;;;;2.60;1.00;;;12.20;76.80;;;;;;5027410;28;21092;-47
2023/11/04 10:32:15;;;;;;;3.00;0.70;;;12.10;76.40;;;;;;5024864;28;20484;-46
2023/11/04 10:34:46;;;;;;;3.17;1.10;;;12.10;76.80;;;;;;5027641;28;20437;-46
2023/11/04 10:37:19;;;;;;;2.20;0.57;;;12.20;76.70;;;;;;5008421;28;20444;-46
2023/11/04 10:39:52;;;;;;;1.87;0.60;;;12.20;76.70;;;;;;5023907;28;20450;-46
2023/11/04 10:42:24;;;;;;;3.87;0.80;;;12.30;76.40;;;;;;5027745;28;20511;-46
2023/11/04 10:44:58;;;;;;;4.57;1.40;;;12.30;75.90;;;;;;5024318;28;20669;-45
2023/11/04 10:47:36;;;;;;;4.50;0.93;;;12.30;77.50;;;;;;5026136;28;20227;-45
2023/11/04 10:50:12;;;;;;;3.67;1.10;;;12.30;76.60;;;;;;5022731;28;20460;-44
2023/11/04 10:52:46;;;;;;;2.00;1.00;;;12.20;76.50;;;;;;5025761;28;20479;-44
2023/11/04 10:55:19;;;;;;;1.83;0.70;;;12.20;76.80;;;;;;5022851;28;20472;-44
2023/11/04 10:57:59;;;;;;;2.30;1.00;;;12.20;76.90;;;;;;5027829;28;20671;-45
2023/11/04 11:00:31;;;;;;;2.67;1.10;;;12.10;77.00;;;;;;5020376;28;20475;-45
2023/11/04 11:03:00;;;;;;;1.90;0.77;;;12.20;77.00;;;;;;5008550;28;20440;-45
2023/11/04 11:05:30;;;;;;;2.53;1.00;;;12.20;77.10;;;;;;5029911;28;20563;-45
2023/11/04 11:07:59;;;;;;;2.90;1.03;;;12.10;77.20;;;;;;5008194;28;20447;-45
2023/11/04 11:10:43;;;;;;;3.80;1.10;;;12.10;77.40;;;;;;5022193;28;20563;-45
2023/11/04 11:13:18;;;;;;;2.93;1.13;;;12.10;78.10;;;;;;5020611;28;20432;-44
2023/11/04 11:15:48;;;;;;;4.17;1.20;;;12.10;78.30;;;;;;5026207;28;20840;-44
2023/11/04 11:18:26;;;;;;;1.70;0.77;;;12.00;78.40;;;;;;5024182;28;20490;-44
2023/11/04 11:20:55;;;;;;;2.10;0.87;;;12.00;78.40;;;;;;5029418;28;20556;-44
2023/11/04 11:23:28;;;;;;;2.10;1.00;;;12.00;78.70;;;;;;5026656;28;20472;-44
2023/11/04 11:26:11;;;;;;;1.53;0.60;;;12.00;78.70;;;;;;5021809;28;20472;-45
2023/11/04 11:28:40;;;;;;;3.10;0.80;;;12.00;78.60;;;;;;5022115;28;20828;-44
2023/11/04 11:31:11;;;;;;;2.00;0.60;;;12.00;78.80;;;;;;5023584;28;20472;-45
2023/11/04 11:33:41;;;;;;;4.13;0.83;;;12.00;79.20;;;;;;5023018;28;20955;-44
2023/11/04 11:36:13;;;;;;;1.70;0.50;;;11.90;78.90;;;;;;5021408;28;20493;-45
2023/11/04 11:38:44;;;;;;;2.90;0.90;;;11.90;79.00;;;;;;5019789;28;20953;-45
2023/11/04 11:41:15;;;;;;;1.40;1.10;;;11.90;79.20;;;;;;5019382;28;20474;-45
2023/11/04 11:43:46;;;;;;;2.40;0.73;;;11.90;79.40;;;;;;5024889;28;20451;-45
2023/11/04 11:46:15;;;;;;;1.40;0.67;;;11.90;79.40;;;;;;5017564;28;20479;-44
2023/11/04 11:48:45;;;;;;;2.60;0.77;;;11.90;79.60;;;;;;5021121;28;20448;-45
2023/11/04 11:51:15;;;;;;;1.90;0.83;;;11.90;79.80;;;;;;5001221;28;20501;-44
2023/11/04 11:53:46;;;;;;;2.13;0.80;;;11.90;79.80;;;;;;5000674;28;20445;-45
2023/11/04 11:56:16;;;;;;;3.80;0.90;;;11.90;79.80;;;;;;5004521;28;21018;-45
2023/11/04 11:58:45;;;;;;;1.87;0.70;;;11.90;79.70;;;;;;5004793;28;20444;-44
2023/11/04 12:01:15;;;;;;;1.53;0.70;;;11.90;79.70;;;;;;5006217;28;20855;-45
2023/11/04 12:03:44;;;;;;;1.17;0.67;;;11.90;79.80;;;;;;5007767;28;20447;-45
2023/11/04 12:06:13;;;;;;;1.77;0.70;;;11.90;79.60;;;;;;5005654;28;20484;-44
2023/11/04 12:08:41;;;;;;;1.97;0.80;;;11.90;79.70;;;;;;5004973;28;20445;-45
2023/11/04 12:11:09;;;;;;;0.90;0.60;;;11.80;79.70;;;;;;5008975;28;20491;-44
2023/11/04 12:13:39;;;;;;;1.67;1.00;;;11.90;79.80;;;;;;5004144;28;20817;-45
2023/11/04 12:16:09;;;;;;;3.00;1.03;;;11.90;80.30;;;;;;4999709;28;20500;-44
2023/11/04 12:18:37;;;;;;;3.00;0.77;;;11.90;80.20;;;;;;5002378;28;20993;-45
2023/11/04 12:21:10;;;;;;;3.50;0.97;;;11.90;80.20;;;;;;5005978;28;20493;-42
2023/11/04 12:23:39;;;;;;;2.10;0.80;;;11.90;80.20;;;;;;5007219;28;20443;-42
2023/11/04 12:26:07;;;;;;;3.87;0.97;;;11.90;80.00;;;;;;5007168;28;20484;-44
2023/11/04 12:28:42;;;;;;;2.30;0.87;;;11.90;80.50;;;;;;5006775;28;20965;-44
2023/11/04 12:31:12;;;;;;;1.90;1.00;;;11.80;80.40;;;;;;5006942;28;20464;-42
2023/11/04 12:33:45;;;;;;;3.23;1.10;;;11.80;80.60;;;;;;5003210;28;20503;-45
2023/11/04 12:36:14;;;;;;;1.77;0.77;;;11.90;81.00;;;;;;5009437;28;20476;-44
2023/11/04 12:38:46;;;;;;;4.20;1.10;;;11.90;81.50;;;;;;5007287;28;20476;-45
2023/11/04 12:41:15;;;;;;;3.07;1.10;;;11.90;81.70;;;;;;5010888;28;20465;-44
2023/11/04 12:43:45;;;;;;;0.97;0.57;;;11.90;81.50;;;;;;5005404;28;20481;-43
2023/11/04 12:46:14;;;;;;;5.90;1.23;;;11.90;81.10;;;;;;5007988;28;20837;-44
2023/11/04 12:48:44;;;;;;;2.20;0.70;;;12.00;81.50;;;;;;5014999;28;21028;-43
2023/11/04 12:51:13;;;;;;;2.10;1.13;;;12.00;82.50;;;;;;5024395;28;20467;-43
2023/11/04 12:53:42;;;;;;;3.73;0.70;;;12.00;82.40;;;;;;5010800;28;20476;-43
2023/11/04 12:56:11;;;;;;;1.70;0.80;;;12.10;82.40;;;;;;4995485;28;20482;-42
2023/11/04 12:58:40;;;;;;;7.13;0.90;;;12.10;82.80;;;;;;5025519;28;20452;-44